sensor_id;sensor_type;location;lat;lon;timestamp;temperature;humidity
56336;DHT22;42241;53.510;10.170;2023-02-28T00:00:17;3.70;99.90
56336;DHT22;42241;53.510;10.170;2023-02-28T00:02:43;3.60;99.90
56336;DHT22;42241;53.510;10.170;2023-02-28T00:05:12;3.50;99.90
56336;DHT22;42241;53.510;10.170;2023-02-28T00:07:37;3.40;99.90
56336;DHT22;42241;53.510;10.170;2023-02-28T00:10:04;3.20;99.90
56336;DHT22;42241;53.510;10.170;2023-02-28T00:12:34;3.10;99.90
56336;DHT22;42241;53.510;10.170;2023-02-28T00:14:59;3.00;99.90
56336;DHT22;42241;53.510;10.170;2023-02-28T00:17:28;2.90;99.90
56336;DHT22;42241;53.510;10.170;2023-02-28T00:19:56;2.90;99.90
56336;DHT22;42241;53.510;10.170;2023-02-28T00:22:30;2.80;99.90
56336;DHT22;42241;53.510;10.170;2023-02-28T00:24:58;2.70;99.90
56336;DHT22;42241;53.510;10.170;2023-02-28T00:27:24;2.70;99.90
56336;DHT22;42241;53.510;10.170;2023-02-28T00:29:49;2.70;99.90
56336;DHT22;42241;53.510;10.170;2023-02-28T00:32:15;2.70;99.90
56336;DHT22;42241;53.510;10.170;2023-02-28T00:34:40;2.60;99.90
56336;DHT22;42241;53.510;10.170;2023-02-28T00:37:07;2.60;99.90
56336;DHT22;42241;53.510;10.170;2023-02-28T00:39:36;2.50;99.90
56336;DHT22;42241;53.510;10.170;2023-02-28T00:42:02;2.40;99.90
56336;DHT22;42241;53.510;10.170;2023-02-28T00:44:32;2.30;99.90
56336;DHT22;42241;53.510;10.170;2023-02-28T00:46:57;2.20;99.90
56336;DHT22;42241;53.510;10.170;2023-02-28T00:49:23;2.10;99.90
56336;DHT22;42241;53.510;10.170;2023-02-28T00:51:49;2.00;99.90
56336;DHT22;42241;53.510;10.170;2023-02-28T00:54:15;2.00;99.90
56336;DHT22;42241;53.510;10.170;2023-02-28T00:56:40;2.10;99.90
56336;DHT22;42241;53.510;10.170;2023-02-28T00:59:06;2.00;99.90
56336;DHT22;42241;53.510;10.170;2023-02-28T01:01:32;2.00;99.90
56336;DHT22;42241;53.510;10.170;2023-02-28T01:03:57;2.00;99.90
56336;DHT22;42241;53.510;10.170;2023-02-28T01:06:23;2.00;99.90
56336;DHT22;42241;53.510;10.170;2023-02-28T01:08:48;1.90;99.90
56336;DHT22;42241;53.510;10.170;2023-02-28T01:11:15;1.90;99.90
56336;DHT22;42241;53.510;10.170;2023-02-28T01:13:44;1.70;99.90
56336;DHT22;42241;53.510;10.170;2023-02-28T01:16:09;1.60;99.90
56336;DHT22;42241;53.510;10.170;2023-02-28T01:18:35;1.50;99.90
56336;DHT22;42241;53.510;10.170;2023-02-28T01:21:06;1.40;99.90
56336;DHT22;42241;53.510;10.170;2023-02-28T01:23:32;1.40;99.90
56336;DHT22;42241;53.510;10.170;2023-02-28T01:26:03;1.30;99.90
56336;DHT22;42241;53.510;10.170;2023-02-28T01:28:30;1.30;99.90
56336;DHT22;42241;53.510;10.170;2023-02-28T01:30:56;1.30;99.90
56336;DHT22;42241;53.510;10.170;2023-02-28T01:33:23;1.30;99.90
56336;DHT22;42241;53.510;10.170;2023-02-28T01:35:49;1.30;99.90
56336;DHT22;42241;53.510;10.170;2023-02-28T01:38:17;1.20;99.90
56336;DHT22;42241;53.510;10.170;2023-02-28T01:40:48;1.20;99.90
56336;DHT22;42241;53.510;10.170;2023-02-28T01:43:26;1.20;99.90
56336;DHT22;42241;53.510;10.170;2023-02-28T01:45:53;1.30;99.90
56336;DHT22;42241;53.510;10.170;2023-02-28T01:48:22;1.30;99.90
56336;DHT22;42241;53.510;10.170;2023-02-28T01:50:49;1.20;99.90
56336;DHT22;42241;53.510;10.170;2023-02-28T01:53:18;1.20;99.90
56336;DHT22;42241;53.510;10.170;2023-02-28T01:55:45;1.20;99.90
56336;DHT22;42241;53.510;10.170;2023-02-28T01:58:14;1.10;99.90
56336;DHT22;42241;53.510;10.170;2023-02-28T02:00:40;1.10;99.90
56336;DHT22;42241;53.510;10.170;2023-02-28T02:03:08;1.00;99.90
56336;DHT22;42241;53.510;10.170;2023-02-28T02:05:35;1.00;99.90
56336;DHT22;42241;53.510;10.170;2023-02-28T02:08:05;1.00;99.90
56336;DHT22;42241;53.510;10.170;2023-02-28T02:13:11;0.90;99.90
56336;DHT22;42241;53.510;10.170;2023-02-28T02:26:29;0.90;99.90
56336;DHT22;42241;53.510;10.170;2023-02-28T02:44:07;0.90;99.90
56336;DHT22;42241;53.510;10.170;2023-02-28T02:46:42;0.80;99.90
56336;DHT22;42241;53.510;10.170;2023-02-28T02:49:09;0.80;99.90
56336;DHT22;42241;53.510;10.170;2023-02-28T02:51:35;0.70;99.90
56336;DHT22;42241;53.510;10.170;2023-02-28T02:54:04;0.70;99.90
56336;DHT22;42241;53.510;10.170;2023-02-28T02:56:32;0.60;99.90
56336;DHT22;42241;53.510;10.170;2023-02-28T02:59:00;0.60;99.90
56336;DHT22;42241;53.510;10.170;2023-02-28T03:01:26;0.60;99.90
56336;DHT22;42241;53.510;10.170;2023-02-28T03:04:01;0.60;99.90
56336;DHT22;42241;53.510;10.170;2023-02-28T03:06:27;0.60;99.90
56336;DHT22;42241;53.510;10.170;2023-02-28T03:08:53;0.50;99.90
56336;DHT22;42241;53.510;10.170;2023-02-28T03:11:21;0.40;99.90
56336;DHT22;42241;53.510;10.170;2023-02-28T03:16:29;0.40;99.90
56336;DHT22;42241;53.510;10.170;2023-02-28T03:24:08;0.20;99.90
56336;DHT22;42241;53.510;10.170;2023-02-28T03:26:39;0.30;99.90
56336;DHT22;42241;53.510;10.170;2023-02-28T03:31:44;0.30;99.90
56336;DHT22;42241;53.510;10.170;2023-02-28T03:36:43;0.20;99.90
56336;DHT22;42241;53.510;10.170;2023-02-28T03:39:20;0.20;99.90
56336;DHT22;42241;53.510;10.170;2023-02-28T03:44:27;0.30;99.90
56336;DHT22;42241;53.510;10.170;2023-02-28T03:47:08;0.30;99.90
56336;DHT22;42241;53.510;10.170;2023-02-28T03:49:38;0.40;99.90
56336;DHT22;42241;53.510;10.170;2023-02-28T03:52:08;0.40;99.90
56336;DHT22;42241;53.510;10.170;2023-02-28T03:54:35;0.30;99.90
56336;DHT22;42241;53.510;10.170;2023-02-28T03:57:05;0.20;99.90
56336;DHT22;42241;53.510;10.170;2023-02-28T03:59:39;0.10;99.90
56336;DHT22;42241;53.510;10.170;2023-02-28T04:02:07;0.10;99.90
56336;DHT22;42241;53.510;10.170;2023-02-28T04:04:35;0.00;99.90
56336;DHT22;42241;53.510;10.170;2023-02-28T04:07:04;0.00;99.90
56336;DHT22;42241;53.510;10.170;2023-02-28T04:09:32;0.00;99.90
56336;DHT22;42241;53.510;10.170;2023-02-28T04:11:58;0.00;99.90
56336;DHT22;42241;53.510;10.170;2023-02-28T04:14:24;0.00;99.90
56336;DHT22;42241;53.510;10.170;2023-02-28T04:16:49;0.00;99.90
56336;DHT22;42241;53.510;10.170;2023-02-28T04:19:16;0.00;99.90
56336;DHT22;42241;53.510;10.170;2023-02-28T04:21:45;0.00;99.90
56336;DHT22;42241;53.510;10.170;2023-02-28T04:24:20;-0.10;99.90
56336;DHT22;42241;53.510;10.170;2023-02-28T04:26:47;-0.10;99.90
56336;DHT22;42241;53.510;10.170;2023-02-28T04:29:13;-0.10;99.90
56336;DHT22;42241;53.510;10.170;2023-02-28T04:31:41;-0.20;99.90
56336;DHT22;42241;53.510;10.170;2023-02-28T04:34:09;-0.10;99.90
56336;DHT22;42241;53.510;10.170;2023-02-28T04:36:34;-0.10;99.90
56336;DHT22;42241;53.510;10.170;2023-02-28T04:39:00;-0.10;99.90
56336;DHT22;42241;53.510;10.170;2023-02-28T04:41:26;-0.10;99.90
56336;DHT22;42241;53.510;10.170;2023-02-28T04:43:51;-0.20;99.90
56336;DHT22;42241;53.510;10.170;2023-02-28T04:46:18;-0.30;99.90
56336;DHT22;42241;53.510;10.170;2023-02-28T04:48:43;-0.30;99.90
56336;DHT22;42241;53.510;10.170;2023-02-28T04:51:12;-0.30;99.90
56336;DHT22;42241;53.510;10.170;2023-02-28T04:53:41;-0.40;99.90
56336;DHT22;42241;53.510;10.170;2023-02-28T04:56:08;-0.40;99.90
56336;DHT22;42241;53.510;10.170;2023-02-28T04:58:35;-0.40;99.90
56336;DHT22;42241;53.510;10.170;2023-02-28T05:01:06;-0.40;99.90
56336;DHT22;42241;53.510;10.170;2023-02-28T05:03:41;-0.40;99.90
56336;DHT22;42241;53.510;10.170;2023-02-28T05:06:07;-0.50;99.90
56336;DHT22;42241;53.510;10.170;2023-02-28T05:08:35;-0.50;99.90
56336;DHT22;42241;53.510;10.170;2023-02-28T05:11:03;-0.50;99.90
56336;DHT22;42241;53.510;10.170;2023-02-28T05:13:29;-0.50;99.90
56336;DHT22;42241;53.510;10.170;2023-02-28T05:15:55;-0.50;99.90
56336;DHT22;42241;53.510;10.170;2023-02-28T05:18:23;-0.50;99.90
56336;DHT22;42241;53.510;10.170;2023-02-28T05:20:51;-0.50;99.90
56336;DHT22;42241;53.510;10.170;2023-02-28T05:23:19;-0.50;99.90
56336;DHT22;42241;53.510;10.170;2023-02-28T05:25:47;-0.50;99.90
56336;DHT22;42241;53.510;10.170;2023-02-28T05:28:15;-0.50;99.90
56336;DHT22;42241;53.510;10.170;2023-02-28T05:30:41;-0.60;99.90
56336;DHT22;42241;53.510;10.170;2023-02-28T05:33:06;-0.60;99.90
56336;DHT22;42241;53.510;10.170;2023-02-28T05:35:32;-0.50;99.90
56336;DHT22;42241;53.510;10.170;2023-02-28T05:37:57;-0.60;99.90
56336;DHT22;42241;53.510;10.170;2023-02-28T05:40:22;-0.60;99.90
56336;DHT22;42241;53.510;10.170;2023-02-28T05:42:49;-0.60;99.90
56336;DHT22;42241;53.510;10.170;2023-02-28T05:45:18;-0.60;99.90
56336;DHT22;42241;53.510;10.170;2023-02-28T05:47:46;-0.60;99.90
56336;DHT22;42241;53.510;10.170;2023-02-28T05:50:13;-0.70;99.90
56336;DHT22;42241;53.510;10.170;2023-02-28T05:52:41;-0.80;99.90
56336;DHT22;42241;53.510;10.170;2023-02-28T05:55:07;-0.70;99.90
56336;DHT22;42241;53.510;10.170;2023-02-28T05:57:33;-0.70;99.90
56336;DHT22;42241;53.510;10.170;2023-02-28T06:00:00;-0.60;99.90
56336;DHT22;42241;53.510;10.170;2023-02-28T06:02:27;-0.60;99.90
56336;DHT22;42241;53.510;10.170;2023-02-28T06:04:55;-0.70;99.90
56336;DHT22;42241;53.510;10.170;2023-02-28T06:07:20;-0.80;99.90
56336;DHT22;42241;53.510;10.170;2023-02-28T06:09:47;-0.80;99.90
56336;DHT22;42241;53.510;10.170;2023-02-28T06:12:13;-0.80;99.90
56336;DHT22;42241;53.510;10.170;2023-02-28T06:14:41;-0.80;99.90
56336;DHT22;42241;53.510;10.170;2023-02-28T06:17:09;-0.90;99.90
56336;DHT22;42241;53.510;10.170;2023-02-28T06:19:36;-0.90;99.90
56336;DHT22;42241;53.510;10.170;2023-02-28T06:22:06;-0.80;99.90
56336;DHT22;42241;53.510;10.170;2023-02-28T06:24:34;-0.80;99.90
56336;DHT22;42241;53.510;10.170;2023-02-28T06:26:59;-0.70;99.90
56336;DHT22;42241;53.510;10.170;2023-02-28T06:29:30;-0.90;99.90
56336;DHT22;42241;53.510;10.170;2023-02-28T06:31:56;-0.90;99.90
56336;DHT22;42241;53.510;10.170;2023-02-28T06:34:24;-0.90;99.90
56336;DHT22;42241;53.510;10.170;2023-02-28T06:36:52;-0.90;99.90
56336;DHT22;42241;53.510;10.170;2023-02-28T06:39:17;-0.80;99.90
56336;DHT22;42241;53.510;10.170;2023-02-28T06:41:45;-0.80;99.90
56336;DHT22;42241;53.510;10.170;2023-02-28T06:44:16;-0.70;99.90
56336;DHT22;42241;53.510;10.170;2023-02-28T06:46:42;-0.70;99.90
56336;DHT22;42241;53.510;10.170;2023-02-28T06:49:09;-0.80;99.90
56336;DHT22;42241;53.510;10.170;2023-02-28T06:51:35;-0.80;99.90
56336;DHT22;42241;53.510;10.170;2023-02-28T06:54:01;-0.80;99.90
56336;DHT22;42241;53.510;10.170;2023-02-28T06:56:27;-0.80;99.90
56336;DHT22;42241;53.510;10.170;2023-02-28T06:58:52;-0.80;99.90
56336;DHT22;42241;53.510;10.170;2023-02-28T07:01:18;-0.70;99.90
56336;DHT22;42241;53.510;10.170;2023-02-28T07:03:48;-0.70;99.90
56336;DHT22;42241;53.510;10.170;2023-02-28T07:06:23;-0.70;99.90
56336;DHT22;42241;53.510;10.170;2023-02-28T07:08:49;-0.70;99.90
56336;DHT22;42241;53.510;10.170;2023-02-28T07:11:15;-0.70;99.90
56336;DHT22;42241;53.510;10.170;2023-02-28T07:13:40;-0.80;99.90
56336;DHT22;42241;53.510;10.170;2023-02-28T07:16:07;-0.70;99.90
56336;DHT22;42241;53.510;10.170;2023-02-28T07:18:34;-0.60;99.90
56336;DHT22;42241;53.510;10.170;2023-02-28T07:21:03;-0.60;99.90
56336;DHT22;42241;53.510;10.170;2023-02-28T07:23:31;-0.60;99.90
56336;DHT22;42241;53.510;10.170;2023-02-28T07:25:56;-0.60;99.90
56336;DHT22;42241;53.510;10.170;2023-02-28T07:28:22;-0.50;99.90
56336;DHT22;42241;53.510;10.170;2023-02-28T07:30:50;-0.40;99.90
56336;DHT22;42241;53.510;10.170;2023-02-28T07:33:16;-0.40;99.90
56336;DHT22;42241;53.510;10.170;2023-02-28T07:35:41;-0.40;99.90
56336;DHT22;42241;53.510;10.170;2023-02-28T07:38:07;-0.30;99.90
56336;DHT22;42241;53.510;10.170;2023-02-28T07:40:35;-0.30;99.90
56336;DHT22;42241;53.510;10.170;2023-02-28T07:43:02;-0.10;99.90
56336;DHT22;42241;53.510;10.170;2023-02-28T07:45:28;-0.10;99.90
56336;DHT22;42241;53.510;10.170;2023-02-28T07:47:54;0.10;99.90
56336;DHT22;42241;53.510;10.170;2023-02-28T07:50:20;0.20;99.90
56336;DHT22;42241;53.510;10.170;2023-02-28T07:52:46;0.20;99.90
56336;DHT22;42241;53.510;10.170;2023-02-28T07:55:13;0.30;99.90
56336;DHT22;42241;53.510;10.170;2023-02-28T07:57:42;0.40;99.90
56336;DHT22;42241;53.510;10.170;2023-02-28T08:00:11;0.50;99.90
56336;DHT22;42241;53.510;10.170;2023-02-28T08:02:37;0.60;99.90
56336;DHT22;42241;53.510;10.170;2023-02-28T08:05:06;0.70;99.90
56336;DHT22;42241;53.510;10.170;2023-02-28T08:07:32;0.80;99.90
56336;DHT22;42241;53.510;10.170;2023-02-28T08:09:58;0.90;99.90
56336;DHT22;42241;53.510;10.170;2023-02-28T08:12:24;0.90;99.90
56336;DHT22;42241;53.510;10.170;2023-02-28T08:14:49;1.00;99.90
56336;DHT22;42241;53.510;10.170;2023-02-28T08:17:15;1.10;99.90
56336;DHT22;42241;53.510;10.170;2023-02-28T08:19:40;1.10;99.90
56336;DHT22;42241;53.510;10.170;2023-02-28T08:22:06;1.20;99.90
56336;DHT22;42241;53.510;10.170;2023-02-28T08:24:34;1.30;99.90
56336;DHT22;42241;53.510;10.170;2023-02-28T08:26:59;1.40;99.90
56336;DHT22;42241;53.510;10.170;2023-02-28T08:29:25;1.40;99.90
56336;DHT22;42241;53.510;10.170;2023-02-28T08:31:50;1.50;99.90
56336;DHT22;42241;53.510;10.170;2023-02-28T08:34:16;1.70;99.90
56336;DHT22;42241;53.510;10.170;2023-02-28T08:36:42;1.80;99.90
56336;DHT22;42241;53.510;10.170;2023-02-28T08:39:12;1.90;99.90
56336;DHT22;42241;53.510;10.170;2023-02-28T08:41:38;2.00;99.90
56336;DHT22;42241;53.510;10.170;2023-02-28T08:44:06;2.20;99.90
56336;DHT22;42241;53.510;10.170;2023-02-28T08:46:34;2.40;99.90
56336;DHT22;42241;53.510;10.170;2023-02-28T08:49:02;2.80;99.90
56336;DHT22;42241;53.510;10.170;2023-02-28T08:51:28;3.60;99.90
56336;DHT22;42241;53.510;10.170;2023-02-28T08:53:54;4.80;99.90
56336;DHT22;42241;53.510;10.170;2023-02-28T08:56:21;5.60;99.90
56336;DHT22;42241;53.510;10.170;2023-02-28T08:58:47;6.00;99.90
56336;DHT22;42241;53.510;10.170;2023-02-28T09:01:14;6.40;99.90
56336;DHT22;42241;53.510;10.170;2023-02-28T09:03:41;7.20;99.90
56336;DHT22;42241;53.510;10.170;2023-02-28T09:06:07;7.40;99.90
56336;DHT22;42241;53.510;10.170;2023-02-28T09:08:33;7.10;99.90
56336;DHT22;42241;53.510;10.170;2023-02-28T09:10:58;7.00;99.90
56336;DHT22;42241;53.510;10.170;2023-02-28T09:13:27;6.70;99.90
56336;DHT22;42241;53.510;10.170;2023-02-28T09:15:53;6.80;99.90
56336;DHT22;42241;53.510;10.170;2023-02-28T09:18:18;7.10;99.90
56336;DHT22;42241;53.510;10.170;2023-02-28T09:20:46;7.90;99.90
56336;DHT22;42241;53.510;10.170;2023-02-28T09:23:12;8.70;99.90
56336;DHT22;42241;53.510;10.170;2023-02-28T09:25:47;9.60;99.90
56336;DHT22;42241;53.510;10.170;2023-02-28T09:28:13;10.50;99.90
56336;DHT22;42241;53.510;10.170;2023-02-28T09:30:41;11.70;99.90
56336;DHT22;42241;53.510;10.170;2023-02-28T09:33:08;12.60;99.90
56336;DHT22;42241;53.510;10.170;2023-02-28T09:35:39;13.50;95.20
56336;DHT22;42241;53.510;10.170;2023-02-28T09:38:04;14.90;89.50
56336;DHT22;42241;53.510;10.170;2023-02-28T09:40:30;15.80;75.60
56336;DHT22;42241;53.510;10.170;2023-02-28T09:42:57;16.70;68.10
56336;DHT22;42241;53.510;10.170;2023-02-28T09:45:36;17.70;67.40
56336;DHT22;42241;53.510;10.170;2023-02-28T09:48:03;17.30;56.60
56336;DHT22;42241;53.510;10.170;2023-02-28T09:50:35;15.80;60.60
56336;DHT22;42241;53.510;10.170;2023-02-28T09:53:13;15.60;64.10
56336;DHT22;42241;53.510;10.170;2023-02-28T09:55:50;16.00;61.40
56336;DHT22;42241;53.510;10.170;2023-02-28T10:00:45;16.50;56.50
56336;DHT22;42241;53.510;10.170;2023-02-28T10:05:50;18.20;52.60
56336;DHT22;42241;53.510;10.170;2023-02-28T10:08:38;18.80;45.60
56336;DHT22;42241;53.510;10.170;2023-02-28T10:11:09;17.90;45.00
56336;DHT22;42241;53.510;10.170;2023-02-28T10:13:37;19.10;43.00
56336;DHT22;42241;53.510;10.170;2023-02-28T10:18:47;22.50;41.80
56336;DHT22;42241;53.510;10.170;2023-02-28T10:21:21;24.50;38.10
56336;DHT22;42241;53.510;10.170;2023-02-28T10:23:49;25.40;35.20
56336;DHT22;42241;53.510;10.170;2023-02-28T10:26:20;25.30;32.70
56336;DHT22;42241;53.510;10.170;2023-02-28T10:28:46;24.80;29.60
56336;DHT22;42241;53.510;10.170;2023-02-28T10:31:14;23.20;27.70
56336;DHT22;42241;53.510;10.170;2023-02-28T10:33:42;24.90;29.10
56336;DHT22;42241;53.510;10.170;2023-02-28T10:36:10;24.90;28.90
56336;DHT22;42241;53.510;10.170;2023-02-28T10:38:39;25.10;29.50
56336;DHT22;42241;53.510;10.170;2023-02-28T10:41:08;26.10;31.50
56336;DHT22;42241;53.510;10.170;2023-02-28T10:43:34;26.70;29.50
56336;DHT22;42241;53.510;10.170;2023-02-28T10:48:37;27.10;28.00
56336;DHT22;42241;53.510;10.170;2023-02-28T10:51:04;28.60;27.30
56336;DHT22;42241;53.510;10.170;2023-02-28T11:01:19;28.30;25.40
56336;DHT22;42241;53.510;10.170;2023-02-28T11:03:45;26.00;26.10
56336;DHT22;42241;53.510;10.170;2023-02-28T11:06:21;26.50;27.80
56336;DHT22;42241;53.510;10.170;2023-02-28T11:08:49;27.20;26.40
56336;DHT22;42241;53.510;10.170;2023-02-28T11:11:20;26.70;25.90
56336;DHT22;42241;53.510;10.170;2023-02-28T11:13:47;24.20;25.50
56336;DHT22;42241;53.510;10.170;2023-02-28T11:16:15;26.30;27.50
56336;DHT22;42241;53.510;10.170;2023-02-28T11:18:54;25.50;26.50
56336;DHT22;42241;53.510;10.170;2023-02-28T11:24:17;24.70;27.40
56336;DHT22;42241;53.510;10.170;2023-02-28T11:26:44;25.20;26.80
56336;DHT22;42241;53.510;10.170;2023-02-28T11:29:20;25.30;26.20
56336;DHT22;42241;53.510;10.170;2023-02-28T11:34:32;25.80;27.80
56336;DHT22;42241;53.510;10.170;2023-02-28T11:37:00;27.40;27.80
56336;DHT22;42241;53.510;10.170;2023-02-28T11:39:31;27.50;26.00
56336;DHT22;42241;53.510;10.170;2023-02-28T11:47:37;29.00;25.90
56336;DHT22;42241;53.510;10.170;2023-02-28T11:50:12;29.50;24.80
56336;DHT22;42241;53.510;10.170;2023-02-28T12:00:08;28.80;23.90
56336;DHT22;42241;53.510;10.170;2023-02-28T12:02:44;29.20;25.30
56336;DHT22;42241;53.510;10.170;2023-02-28T12:05:24;30.60;24.60
56336;DHT22;42241;53.510;10.170;2023-02-28T12:10:37;27.40;22.80
56336;DHT22;42241;53.510;10.170;2023-02-28T12:21:04;28.20;24.70
56336;DHT22;42241;53.510;10.170;2023-02-28T12:29:00;28.20;23.80
56336;DHT22;42241;53.510;10.170;2023-02-28T12:31:29;25.70;24.70
56336;DHT22;42241;53.510;10.170;2023-02-28T12:34:31;24.30;25.20
56336;DHT22;42241;53.510;10.170;2023-02-28T12:36:50;23.80;28.10
56336;DHT22;42241;53.510;10.170;2023-02-28T12:41:46;20.90;29.50
56336;DHT22;42241;53.510;10.170;2023-02-28T12:46:59;19.70;30.30
56336;DHT22;42241;53.510;10.170;2023-02-28T12:51:52;18.30;30.70
56336;DHT22;42241;53.510;10.170;2023-02-28T12:59:22;17.70;34.40
56336;DHT22;42241;53.510;10.170;2023-02-28T13:01:58;17.10;34.10
56336;DHT22;42241;53.510;10.170;2023-02-28T13:04:29;17.60;33.80
56336;DHT22;42241;53.510;10.170;2023-02-28T13:09:22;19.40;31.20
56336;DHT22;42241;53.510;10.170;2023-02-28T13:11:49;19.40;32.30
56336;DHT22;42241;53.510;10.170;2023-02-28T13:19:21;15.50;34.40
56336;DHT22;42241;53.510;10.170;2023-02-28T13:21:48;14.40;35.90
56336;DHT22;42241;53.510;10.170;2023-02-28T13:29:28;16.10;38.40
56336;DHT22;42241;53.510;10.170;2023-02-28T13:34:27;16.60;35.00
56336;DHT22;42241;53.510;10.170;2023-02-28T13:42:52;17.20;34.70
56336;DHT22;42241;53.510;10.170;2023-02-28T13:47:28;14.40;37.80
56336;DHT22;42241;53.510;10.170;2023-02-28T13:49:53;15.70;38.50
56336;DHT22;42241;53.510;10.170;2023-02-28T13:52:25;17.70;36.30
56336;DHT22;42241;53.510;10.170;2023-02-28T14:02:51;17.00;37.30
56336;DHT22;42241;53.510;10.170;2023-02-28T14:05:23;15.80;32.90
56336;DHT22;42241;53.510;10.170;2023-02-28T14:08:36;16.20;36.80
56336;DHT22;42241;53.510;10.170;2023-02-28T14:10:49;16.60;36.70
56336;DHT22;42241;53.510;10.170;2023-02-28T14:13:48;16.60;34.70
56336;DHT22;42241;53.510;10.170;2023-02-28T14:16:13;15.70;33.40
56336;DHT22;42241;53.510;10.170;2023-02-28T14:18:40;15.10;34.70
56336;DHT22;42241;53.510;10.170;2023-02-28T14:21:14;14.90;37.30
56336;DHT22;42241;53.510;10.170;2023-02-28T14:23:46;15.60;38.00
56336;DHT22;42241;53.510;10.170;2023-02-28T14:28:56;13.70;37.50
56336;DHT22;42241;53.510;10.170;2023-02-28T14:31:32;12.20;39.70
56336;DHT22;42241;53.510;10.170;2023-02-28T14:34:10;11.50;43.80
56336;DHT22;42241;53.510;10.170;2023-02-28T14:36:42;10.50;43.70
56336;DHT22;42241;53.510;10.170;2023-02-28T14:41:38;10.40;48.60
56336;DHT22;42241;53.510;10.170;2023-02-28T14:46:43;10.40;45.50
56336;DHT22;42241;53.510;10.170;2023-02-28T14:51:48;10.30;49.10
56336;DHT22;42241;53.510;10.170;2023-02-28T14:54:18;10.00;47.20
56336;DHT22;42241;53.510;10.170;2023-02-28T14:56:49;10.10;47.60
56336;DHT22;42241;53.510;10.170;2023-02-28T14:59:24;10.40;49.10
56336;DHT22;42241;53.510;10.170;2023-02-28T15:01:49;10.50;50.40
56336;DHT22;42241;53.510;10.170;2023-02-28T15:04:20;10.30;50.40
56336;DHT22;42241;53.510;10.170;2023-02-28T15:06:46;10.00;50.20
56336;DHT22;42241;53.510;10.170;2023-02-28T15:09:16;9.90;50.20
56336;DHT22;42241;53.510;10.170;2023-02-28T15:11:42;9.80;51.00
56336;DHT22;42241;53.510;10.170;2023-02-28T15:14:14;9.60;49.30
56336;DHT22;42241;53.510;10.170;2023-02-28T15:16:41;9.50;50.30
56336;DHT22;42241;53.510;10.170;2023-02-28T15:21:36;9.00;56.20
56336;DHT22;42241;53.510;10.170;2023-02-28T15:24:07;9.10;56.80
56336;DHT22;42241;53.510;10.170;2023-02-28T15:26:41;9.10;58.40
56336;DHT22;42241;53.510;10.170;2023-02-28T15:29:15;8.90;53.20
56336;DHT22;42241;53.510;10.170;2023-02-28T15:31:52;9.00;58.60
56336;DHT22;42241;53.510;10.170;2023-02-28T15:34:33;8.90;51.10
56336;DHT22;42241;53.510;10.170;2023-02-28T15:37:00;8.90;55.40
56336;DHT22;42241;53.510;10.170;2023-02-28T15:39:27;8.90;59.80
56336;DHT22;42241;53.510;10.170;2023-02-28T15:42:09;9.10;60.70
56336;DHT22;42241;53.510;10.170;2023-02-28T15:44:36;9.30;60.40
56336;DHT22;42241;53.510;10.170;2023-02-28T15:47:06;9.30;63.40
56336;DHT22;42241;53.510;10.170;2023-02-28T15:50:20;9.10;59.20
56336;DHT22;42241;53.510;10.170;2023-02-28T15:55:11;9.00;62.70
56336;DHT22;42241;53.510;10.170;2023-02-28T15:57:41;9.00;65.80
56336;DHT22;42241;53.510;10.170;2023-02-28T16:00:08;8.80;66.50
56336;DHT22;42241;53.510;10.170;2023-02-28T16:02:36;8.60;65.90
56336;DHT22;42241;53.510;10.170;2023-02-28T16:07:36;8.60;73.10
56336;DHT22;42241;53.510;10.170;2023-02-28T16:10:03;8.30;71.90
56336;DHT22;42241;53.510;10.170;2023-02-28T16:12:29;8.20;71.80
56336;DHT22;42241;53.510;10.170;2023-02-28T16:14:56;8.10;72.50
56336;DHT22;42241;53.510;10.170;2023-02-28T16:17:23;7.80;72.50
56336;DHT22;42241;53.510;10.170;2023-02-28T16:19:51;7.70;75.00
56336;DHT22;42241;53.510;10.170;2023-02-28T16:22:20;7.70;77.50
56336;DHT22;42241;53.510;10.170;2023-02-28T16:24:46;7.50;75.60
56336;DHT22;42241;53.510;10.170;2023-02-28T16:27:22;7.30;76.20
56336;DHT22;42241;53.510;10.170;2023-02-28T16:29:55;7.30;78.70
56336;DHT22;42241;53.510;10.170;2023-02-28T16:32:21;7.20;79.50
56336;DHT22;42241;53.510;10.170;2023-02-28T16:34:46;7.20;84.70
56336;DHT22;42241;53.510;10.170;2023-02-28T16:37:13;7.20;84.70
56336;DHT22;42241;53.510;10.170;2023-02-28T16:39:39;7.30;89.30
56336;DHT22;42241;53.510;10.170;2023-02-28T16:42:09;7.20;90.50
56336;DHT22;42241;53.510;10.170;2023-02-28T16:44:38;7.10;90.20
56336;DHT22;42241;53.510;10.170;2023-02-28T16:47:08;7.10;91.60
56336;DHT22;42241;53.510;10.170;2023-02-28T16:49:35;7.00;93.60
56336;DHT22;42241;53.510;10.170;2023-02-28T16:52:00;6.90;94.80
56336;DHT22;42241;53.510;10.170;2023-02-28T16:54:26;6.80;95.20
56336;DHT22;42241;53.510;10.170;2023-02-28T16:56:51;6.70;96.50
56336;DHT22;42241;53.510;10.170;2023-02-28T16:59:18;6.50;96.80
56336;DHT22;42241;53.510;10.170;2023-02-28T17:01:44;6.50;98.50
56336;DHT22;42241;53.510;10.170;2023-02-28T17:04:12;6.40;99.90
56336;DHT22;42241;53.510;10.170;2023-02-28T17:06:41;6.30;99.90
56336;DHT22;42241;53.510;10.170;2023-02-28T17:09:14;6.10;99.90
56336;DHT22;42241;53.510;10.170;2023-02-28T17:11:41;6.00;99.90
56336;DHT22;42241;53.510;10.170;2023-02-28T17:14:06;5.80;99.90
56336;DHT22;42241;53.510;10.170;2023-02-28T17:16:35;5.70;99.90
56336;DHT22;42241;53.510;10.170;2023-02-28T17:19:05;5.60;99.90
56336;DHT22;42241;53.510;10.170;2023-02-28T17:21:31;5.40;99.90
56336;DHT22;42241;53.510;10.170;2023-02-28T17:23:57;5.30;99.90
56336;DHT22;42241;53.510;10.170;2023-02-28T17:26:22;5.30;99.90
56336;DHT22;42241;53.510;10.170;2023-02-28T17:28:53;5.20;99.90
56336;DHT22;42241;53.510;10.170;2023-02-28T17:31:24;5.20;99.90
56336;DHT22;42241;53.510;10.170;2023-02-28T17:33:50;5.10;99.90
56336;DHT22;42241;53.510;10.170;2023-02-28T17:36:25;5.10;99.90
56336;DHT22;42241;53.510;10.170;2023-02-28T17:38:51;5.00;99.90
56336;DHT22;42241;53.510;10.170;2023-02-28T17:41:20;4.90;99.90
56336;DHT22;42241;53.510;10.170;2023-02-28T17:43:46;4.80;99.90
56336;DHT22;42241;53.510;10.170;2023-02-28T17:46:18;4.70;99.90
56336;DHT22;42241;53.510;10.170;2023-02-28T17:48:47;4.60;99.90
56336;DHT22;42241;53.510;10.170;2023-02-28T17:51:16;4.50;99.90
56336;DHT22;42241;53.510;10.170;2023-02-28T17:53:44;4.40;99.90
56336;DHT22;42241;53.510;10.170;2023-02-28T17:56:16;4.40;99.90
56336;DHT22;42241;53.510;10.170;2023-02-28T17:58:42;4.40;99.90
56336;DHT22;42241;53.510;10.170;2023-02-28T18:01:08;4.30;99.90
56336;DHT22;42241;53.510;10.170;2023-02-28T18:03:36;4.30;99.90
56336;DHT22;42241;53.510;10.170;2023-02-28T18:06:01;4.20;99.90
56336;DHT22;42241;53.510;10.170;2023-02-28T18:08:27;4.10;99.90
56336;DHT22;42241;53.510;10.170;2023-02-28T18:10:53;4.10;99.90